Williamston, North Carolina
Current Conditions -  °F | °C
As of 1:15 AM on Monday 26 Jan 2015 (Local Time) from KOCW Reporting Station
Scattered Clouds Scattered Clouds  
Wind Chill: 35°   Ceiling: Unl
Heat Index: 35°   Visibility: 10mi
Dew Point: 34°   Wind: 0mph
Humidity: 94%   Direction: NA
Pressure: 29.81"   Gusts: NA
Location:  35.85°N, 77.06°W
Report Text: KOCW 260615Z AUTO 00000KT 10SM SCT120 02/01 A2981 RMK AO2 T00190011
Loading
Personal Weather Stations






























Interactive Weather Map New forecast layout! Learn more

10-Day Weather Forecast

Advertisements
Track Severe Weather on mobile